sensor_id;sensor_type;location;lat;lon;timestamp;P1;durP1;ratioP1;P2;durP2;ratioP2
13122;SDS011;6627;50.920;12.050;2023-06-19T00:00:51;8.37;;;7.57;;
13122;SDS011;6627;50.920;12.050;2023-06-19T00:03:18;9.60;;;7.67;;
13122;SDS011;6627;50.920;12.050;2023-06-19T00:05:46;9.03;;;8.10;;
13122;SDS011;6627;50.920;12.050;2023-06-19T00:08:13;8.33;;;7.53;;
13122;SDS011;6627;50.920;12.050;2023-06-19T00:10:41;8.10;;;7.30;;
13122;SDS011;6627;50.920;12.050;2023-06-19T00:13:08;9.20;;;7.67;;
13122;SDS011;6627;50.920;12.050;2023-06-19T00:15:36;8.93;;;7.77;;
13122;SDS011;6627;50.920;12.050;2023-06-19T00:18:03;9.70;;;7.93;;
13122;SDS011;6627;50.920;12.050;2023-06-19T00:20:32;9.23;;;8.10;;
13122;SDS011;6627;50.920;12.050;2023-06-19T00:23:00;8.67;;;7.33;;
13122;SDS011;6627;50.920;12.050;2023-06-19T00:25:28;8.87;;;8.07;;
13122;SDS011;6627;50.920;12.050;2023-06-19T00:27:56;8.67;;;7.77;;
13122;SDS011;6627;50.920;12.050;2023-06-19T00:30:23;8.40;;;7.60;;
13122;SDS011;6627;50.920;12.050;2023-06-19T00:32:51;9.23;;;7.70;;
13122;SDS011;6627;50.920;12.050;2023-06-19T00:35:18;8.73;;;7.93;;
13122;SDS011;6627;50.920;12.050;2023-06-19T00:37:46;8.50;;;7.70;;
13122;SDS011;6627;50.920;12.050;2023-06-19T00:40:17;8.57;;;7.77;;
13122;SDS011;6627;50.920;12.050;2023-06-19T00:42:53;8.70;;;7.90;;
13122;SDS011;6627;50.920;12.050;2023-06-19T00:45:21;8.23;;;7.50;;
13122;SDS011;6627;50.920;12.050;2023-06-19T00:47:49;8.67;;;7.87;;
13122;SDS011;6627;50.920;12.050;2023-06-19T00:50:17;8.60;;;7.57;;
13122;SDS011;6627;50.920;12.050;2023-06-19T00:52:45;9.23;;;8.23;;
13122;SDS011;6627;50.920;12.050;2023-06-19T00:55:12;8.27;;;7.57;;
13122;SDS011;6627;50.920;12.050;2023-06-19T00:57:41;8.37;;;7.57;;
13122;SDS011;6627;50.920;12.050;2023-06-19T01:00:10;8.33;;;7.53;;
13122;SDS011;6627;50.920;12.050;2023-06-19T01:02:40;9.13;;;8.23;;
13122;SDS011;6627;50.920;12.050;2023-06-19T01:05:07;9.07;;;8.17;;
13122;SDS011;6627;50.920;12.050;2023-06-19T01:07:37;8.90;;;8.00;;
13122;SDS011;6627;50.920;12.050;2023-06-19T01:10:13;8.77;;;7.97;;
13122;SDS011;6627;50.920;12.050;2023-06-19T01:12:52;8.27;;;7.47;;
13122;SDS011;6627;50.920;12.050;2023-06-19T01:15:25;8.80;;;7.90;;
13122;SDS011;6627;50.920;12.050;2023-06-19T01:17:55;9.07;;;7.83;;
13122;SDS011;6627;50.920;12.050;2023-06-19T01:20:25;8.63;;;7.83;;
13122;SDS011;6627;50.920;12.050;2023-06-19T01:22:55;8.00;;;7.20;;
13122;SDS011;6627;50.920;12.050;2023-06-19T01:25:22;7.73;;;7.00;;
13122;SDS011;6627;50.920;12.050;2023-06-19T01:27:50;8.17;;;7.07;;
13122;SDS011;6627;50.920;12.050;2023-06-19T01:30:19;8.27;;;7.53;;
13122;SDS011;6627;50.920;12.050;2023-06-19T01:32:47;8.73;;;7.67;;
13122;SDS011;6627;50.920;12.050;2023-06-19T01:35:25;8.13;;;7.40;;
13122;SDS011;6627;50.920;12.050;2023-06-19T01:37:57;8.27;;;7.53;;
13122;SDS011;6627;50.920;12.050;2023-06-19T01:40:25;9.10;;;8.30;;
13122;SDS011;6627;50.920;12.050;2023-06-19T01:42:57;8.77;;;7.97;;
13122;SDS011;6627;50.920;12.050;2023-06-19T01:45:26;8.53;;;7.80;;
13122;SDS011;6627;50.920;12.050;2023-06-19T01:47:55;8.60;;;7.80;;
13122;SDS011;6627;50.920;12.050;2023-06-19T01:50:23;10.07;;;8.30;;
13122;SDS011;6627;50.920;12.050;2023-06-19T01:52:50;8.30;;;7.50;;
13122;SDS011;6627;50.920;12.050;2023-06-19T01:55:20;8.80;;;8.00;;
13122;SDS011;6627;50.920;12.050;2023-06-19T01:57:47;8.63;;;7.83;;
13122;SDS011;6627;50.920;12.050;2023-06-19T02:00:14;8.20;;;7.50;;
13122;SDS011;6627;50.920;12.050;2023-06-19T02:02:42;8.60;;;7.80;;
13122;SDS011;6627;50.920;12.050;2023-06-19T02:05:10;8.93;;;7.83;;
13122;SDS011;6627;50.920;12.050;2023-06-19T02:07:38;8.70;;;7.90;;
13122;SDS011;6627;50.920;12.050;2023-06-19T02:10:06;8.97;;;8.10;;
13122;SDS011;6627;50.920;12.050;2023-06-19T02:12:35;8.63;;;7.73;;
13122;SDS011;6627;50.920;12.050;2023-06-19T02:15:03;8.73;;;7.90;;
13122;SDS011;6627;50.920;12.050;2023-06-19T02:17:31;8.50;;;7.70;;
13122;SDS011;6627;50.920;12.050;2023-06-19T02:19:58;8.30;;;7.50;;
13122;SDS011;6627;50.920;12.050;2023-06-19T02:22:25;7.97;;;7.17;;
13122;SDS011;6627;50.920;12.050;2023-06-19T02:24:52;9.23;;;8.33;;
13122;SDS011;6627;50.920;12.050;2023-06-19T02:27:19;8.77;;;7.97;;
13122;SDS011;6627;50.920;12.050;2023-06-19T02:29:48;8.70;;;7.90;;
13122;SDS011;6627;50.920;12.050;2023-06-19T02:32:15;8.37;;;7.40;;
13122;SDS011;6627;50.920;12.050;2023-06-19T02:34:42;8.37;;;7.60;;
13122;SDS011;6627;50.920;12.050;2023-06-19T02:37:11;8.80;;;7.90;;
13122;SDS011;6627;50.920;12.050;2023-06-19T02:39:38;11.50;;;8.47;;
13122;SDS011;6627;50.920;12.050;2023-06-19T02:42:06;9.53;;;8.53;;
13122;SDS011;6627;50.920;12.050;2023-06-19T02:44:34;9.60;;;8.40;;
13122;SDS011;6627;50.920;12.050;2023-06-19T02:47:02;9.57;;;8.57;;
13122;SDS011;6627;50.920;12.050;2023-06-19T02:49:30;11.57;;;8.73;;
13122;SDS011;6627;50.920;12.050;2023-06-19T02:51:57;8.83;;;7.93;;
13122;SDS011;6627;50.920;12.050;2023-06-19T02:54:24;9.13;;;8.23;;
13122;SDS011;6627;50.920;12.050;2023-06-19T02:56:51;8.80;;;8.00;;
13122;SDS011;6627;50.920;12.050;2023-06-19T02:59:18;11.23;;;8.53;;
13122;SDS011;6627;50.920;12.050;2023-06-19T03:01:45;11.40;;;8.57;;
13122;SDS011;6627;50.920;12.050;2023-06-19T03:04:14;9.43;;;8.43;;
13122;SDS011;6627;50.920;12.050;2023-06-19T03:06:41;9.00;;;8.20;;
13122;SDS011;6627;50.920;12.050;2023-06-19T03:09:08;11.20;;;8.90;;
13122;SDS011;6627;50.920;12.050;2023-06-19T03:11:38;9.47;;;8.47;;
13122;SDS011;6627;50.920;12.050;2023-06-19T03:14:06;9.73;;;8.63;;
13122;SDS011;6627;50.920;12.050;2023-06-19T03:16:34;9.37;;;8.27;;
13122;SDS011;6627;50.920;12.050;2023-06-19T03:19:01;10.57;;;9.03;;
13122;SDS011;6627;50.920;12.050;2023-06-19T03:21:30;9.37;;;8.47;;
13122;SDS011;6627;50.920;12.050;2023-06-19T03:23:57;10.13;;;8.40;;
13122;SDS011;6627;50.920;12.050;2023-06-19T03:26:24;9.60;;;8.60;;
13122;SDS011;6627;50.920;12.050;2023-06-19T03:28:52;12.67;;;10.00;;
13122;SDS011;6627;50.920;12.050;2023-06-19T03:31:19;11.07;;;9.10;;
13122;SDS011;6627;50.920;12.050;2023-06-19T03:33:46;10.87;;;9.53;;
13122;SDS011;6627;50.920;12.050;2023-06-19T03:36:13;10.03;;;9.00;;
13122;SDS011;6627;50.920;12.050;2023-06-19T03:38:42;10.13;;;8.70;;
13122;SDS011;6627;50.920;12.050;2023-06-19T03:41:09;10.00;;;9.00;;
13122;SDS011;6627;50.920;12.050;2023-06-19T03:43:36;12.03;;;9.33;;
13122;SDS011;6627;50.920;12.050;2023-06-19T03:46:04;10.90;;;8.90;;
13122;SDS011;6627;50.920;12.050;2023-06-19T03:48:31;11.73;;;9.30;;
13122;SDS011;6627;50.920;12.050;2023-06-19T03:50:59;10.27;;;9.20;;
13122;SDS011;6627;50.920;12.050;2023-06-19T03:53:26;11.10;;;9.00;;
13122;SDS011;6627;50.920;12.050;2023-06-19T03:55:54;10.40;;;9.40;;
13122;SDS011;6627;50.920;12.050;2023-06-19T03:58:21;10.00;;;8.90;;
13122;SDS011;6627;50.920;12.050;2023-06-19T04:00:48;10.07;;;9.07;;
13122;SDS011;6627;50.920;12.050;2023-06-19T04:03:16;10.13;;;9.07;;
13122;SDS011;6627;50.920;12.050;2023-06-19T04:05:43;14.33;;;10.07;;
13122;SDS011;6627;50.920;12.050;2023-06-19T04:08:10;9.83;;;8.93;;
13122;SDS011;6627;50.920;12.050;2023-06-19T04:10:37;10.57;;;9.57;;
13122;SDS011;6627;50.920;12.050;2023-06-19T04:13:05;10.27;;;9.17;;
13122;SDS011;6627;50.920;12.050;2023-06-19T04:15:33;10.83;;;8.93;;
13122;SDS011;6627;50.920;12.050;2023-06-19T04:18:01;10.37;;;9.37;;
13122;SDS011;6627;50.920;12.050;2023-06-19T04:20:28;10.50;;;9.50;;
13122;SDS011;6627;50.920;12.050;2023-06-19T04:22:55;10.50;;;9.60;;
13122;SDS011;6627;50.920;12.050;2023-06-19T04:25:22;14.30;;;9.67;;
13122;SDS011;6627;50.920;12.050;2023-06-19T04:27:49;11.30;;;9.30;;
13122;SDS011;6627;50.920;12.050;2023-06-19T04:30:18;10.43;;;9.43;;
13122;SDS011;6627;50.920;12.050;2023-06-19T04:32:46;10.17;;;9.13;;
13122;SDS011;6627;50.920;12.050;2023-06-19T04:35:13;11.93;;;10.33;;
13122;SDS011;6627;50.920;12.050;2023-06-19T04:37:40;10.93;;;9.83;;
13122;SDS011;6627;50.920;12.050;2023-06-19T04:40:08;10.60;;;9.60;;
13122;SDS011;6627;50.920;12.050;2023-06-19T04:42:36;10.33;;;9.33;;
13122;SDS011;6627;50.920;12.050;2023-06-19T04:45:05;11.57;;;9.33;;
13122;SDS011;6627;50.920;12.050;2023-06-19T04:47:36;13.50;;;9.37;;
13122;SDS011;6627;50.920;12.050;2023-06-19T04:50:04;10.60;;;9.57;;
13122;SDS011;6627;50.920;12.050;2023-06-19T04:52:33;10.73;;;9.73;;
13122;SDS011;6627;50.920;12.050;2023-06-19T04:55:00;10.97;;;9.23;;
13122;SDS011;6627;50.920;12.050;2023-06-19T04:57:27;10.80;;;9.73;;
13122;SDS011;6627;50.920;12.050;2023-06-19T04:59:54;11.50;;;9.30;;
13122;SDS011;6627;50.920;12.050;2023-06-19T05:02:21;10.00;;;9.00;;
13122;SDS011;6627;50.920;12.050;2023-06-19T05:04:50;10.40;;;9.50;;
13122;SDS011;6627;50.920;12.050;2023-06-19T05:07:18;11.03;;;9.93;;
13122;SDS011;6627;50.920;12.050;2023-06-19T05:09:45;10.70;;;9.60;;
13122;SDS011;6627;50.920;12.050;2023-06-19T05:12:12;10.80;;;9.70;;
13122;SDS011;6627;50.920;12.050;2023-06-19T05:14:40;11.10;;;9.00;;
13122;SDS011;6627;50.920;12.050;2023-06-19T05:17:07;11.77;;;9.37;;
13122;SDS011;6627;50.920;12.050;2023-06-19T05:19:35;15.70;;;9.23;;
13122;SDS011;6627;50.920;12.050;2023-06-19T05:22:03;11.67;;;9.13;;
13122;SDS011;6627;50.920;12.050;2023-06-19T05:24:31;18.97;;;10.83;;
13122;SDS011;6627;50.920;12.050;2023-06-19T05:26:59;18.40;;;10.57;;
13122;SDS011;6627;50.920;12.050;2023-06-19T05:29:26;15.10;;;10.23;;
13122;SDS011;6627;50.920;12.050;2023-06-19T05:31:54;16.60;;;10.33;;
13122;SDS011;6627;50.920;12.050;2023-06-19T05:34:22;18.23;;;10.03;;
13122;SDS011;6627;50.920;12.050;2023-06-19T05:36:49;13.73;;;10.37;;
13122;SDS011;6627;50.920;12.050;2023-06-19T05:39:17;15.27;;;10.80;;
13122;SDS011;6627;50.920;12.050;2023-06-19T05:41:45;14.93;;;10.30;;
13122;SDS011;6627;50.920;12.050;2023-06-19T05:44:12;10.67;;;9.67;;
13122;SDS011;6627;50.920;12.050;2023-06-19T05:46:41;16.20;;;10.80;;
13122;SDS011;6627;50.920;12.050;2023-06-19T05:49:08;13.43;;;9.90;;
13122;SDS011;6627;50.920;12.050;2023-06-19T05:51:36;13.27;;;10.37;;
13122;SDS011;6627;50.920;12.050;2023-06-19T05:54:03;17.40;;;10.63;;
13122;SDS011;6627;50.920;12.050;2023-06-19T05:56:32;13.00;;;10.70;;
13122;SDS011;6627;50.920;12.050;2023-06-19T05:58:59;15.40;;;11.37;;
13122;SDS011;6627;50.920;12.050;2023-06-19T06:01:28;17.70;;;12.37;;
13122;SDS011;6627;50.920;12.050;2023-06-19T06:03:56;14.37;;;12.67;;
13122;SDS011;6627;50.920;12.050;2023-06-19T06:06:24;15.60;;;12.73;;
13122;SDS011;6627;50.920;12.050;2023-06-19T06:08:52;14.40;;;11.70;;
13122;SDS011;6627;50.920;12.050;2023-06-19T06:11:21;14.53;;;11.70;;
13122;SDS011;6627;50.920;12.050;2023-06-19T06:13:50;12.43;;;11.13;;
13122;SDS011;6627;50.920;12.050;2023-06-19T06:16:17;12.87;;;11.63;;
13122;SDS011;6627;50.920;12.050;2023-06-19T06:18:44;12.90;;;11.70;;
13122;SDS011;6627;50.920;12.050;2023-06-19T06:21:12;12.43;;;11.20;;
13122;SDS011;6627;50.920;12.050;2023-06-19T06:23:40;11.40;;;10.30;;
13122;SDS011;6627;50.920;12.050;2023-06-19T06:26:11;12.27;;;11.07;;
13122;SDS011;6627;50.920;12.050;2023-06-19T06:28:40;14.73;;;11.90;;
13122;SDS011;6627;50.920;12.050;2023-06-19T06:31:08;11.93;;;10.73;;
13122;SDS011;6627;50.920;12.050;2023-06-19T06:33:35;12.57;;;11.37;;
13122;SDS011;6627;50.920;12.050;2023-06-19T06:36:02;11.80;;;10.50;;
13122;SDS011;6627;50.920;12.050;2023-06-19T06:38:29;12.80;;;10.73;;
13122;SDS011;6627;50.920;12.050;2023-06-19T06:40:57;11.57;;;10.43;;
13122;SDS011;6627;50.920;12.050;2023-06-19T06:43:24;12.53;;;11.30;;
13122;SDS011;6627;50.920;12.050;2023-06-19T06:45:51;14.47;;;12.10;;
13122;SDS011;6627;50.920;12.050;2023-06-19T06:48:20;13.50;;;12.00;;
13122;SDS011;6627;50.920;12.050;2023-06-19T06:50:48;14.60;;;11.30;;
13122;SDS011;6627;50.920;12.050;2023-06-19T06:53:15;16.50;;;11.23;;
13122;SDS011;6627;50.920;12.050;2023-06-19T06:55:42;17.63;;;12.53;;
13122;SDS011;6627;50.920;12.050;2023-06-19T06:58:09;15.03;;;11.37;;
13122;SDS011;6627;50.920;12.050;2023-06-19T07:00:38;22.73;;;12.70;;
13122;SDS011;6627;50.920;12.050;2023-06-19T07:03:06;14.20;;;12.53;;
13122;SDS011;6627;50.920;12.050;2023-06-19T07:05:36;17.77;;;12.57;;
13122;SDS011;6627;50.920;12.050;2023-06-19T07:08:04;19.57;;;12.57;;
13122;SDS011;6627;50.920;12.050;2023-06-19T07:10:31;15.03;;;12.17;;
13122;SDS011;6627;50.920;12.050;2023-06-19T07:12:58;18.80;;;11.60;;
13122;SDS011;6627;50.920;12.050;2023-06-19T07:15:26;26.90;;;12.97;;
13122;SDS011;6627;50.920;12.050;2023-06-19T07:17:53;17.93;;;12.20;;
13122;SDS011;6627;50.920;12.050;2023-06-19T07:20:20;28.53;;;12.60;;
13122;SDS011;6627;50.920;12.050;2023-06-19T07:22:50;26.97;;;12.10;;
13122;SDS011;6627;50.920;12.050;2023-06-19T07:25:18;23.63;;;12.83;;
13122;SDS011;6627;50.920;12.050;2023-06-19T07:27:46;30.23;;;13.43;;
13122;SDS011;6627;50.920;12.050;2023-06-19T07:30:13;18.13;;;12.50;;
13122;SDS011;6627;50.920;12.050;2023-06-19T07:32:40;30.70;;;12.80;;
13122;SDS011;6627;50.920;12.050;2023-06-19T07:35:07;22.13;;;13.03;;
13122;SDS011;6627;50.920;12.050;2023-06-19T07:37:36;21.33;;;12.70;;
13122;SDS011;6627;50.920;12.050;2023-06-19T07:40:05;16.27;;;11.57;;
13122;SDS011;6627;50.920;12.050;2023-06-19T07:42:33;15.43;;;11.87;;
13122;SDS011;6627;50.920;12.050;2023-06-19T07:45:01;20.50;;;12.13;;
13122;SDS011;6627;50.920;12.050;2023-06-19T07:47:28;25.63;;;12.17;;
13122;SDS011;6627;50.920;12.050;2023-06-19T07:49:56;22.77;;;12.20;;
13122;SDS011;6627;50.920;12.050;2023-06-19T07:52:23;23.10;;;11.77;;
13122;SDS011;6627;50.920;12.050;2023-06-19T07:54:51;15.83;;;11.50;;
13122;SDS011;6627;50.920;12.050;2023-06-19T07:57:21;20.00;;;11.40;;
13122;SDS011;6627;50.920;12.050;2023-06-19T07:59:51;19.73;;;10.67;;
13122;SDS011;6627;50.920;12.050;2023-06-19T08:02:20;15.70;;;10.97;;
13122;SDS011;6627;50.920;12.050;2023-06-19T08:04:47;14.30;;;9.37;;
13122;SDS011;6627;50.920;12.050;2023-06-19T08:07:15;13.30;;;9.57;;
13122;SDS011;6627;50.920;12.050;2023-06-19T08:09:43;14.03;;;10.00;;
13122;SDS011;6627;50.920;12.050;2023-06-19T08:12:10;15.77;;;9.73;;
13122;SDS011;6627;50.920;12.050;2023-06-19T08:14:39;18.03;;;9.87;;
13122;SDS011;6627;50.920;12.050;2023-06-19T08:17:06;12.73;;;9.73;;
13122;SDS011;6627;50.920;12.050;2023-06-19T08:19:33;15.33;;;9.30;;
13122;SDS011;6627;50.920;12.050;2023-06-19T08:22:00;12.03;;;8.63;;
13122;SDS011;6627;50.920;12.050;2023-06-19T08:24:28;11.37;;;8.43;;
13122;SDS011;6627;50.920;12.050;2023-06-19T08:26:55;10.80;;;8.53;;
13122;SDS011;6627;50.920;12.050;2023-06-19T08:29:22;9.40;;;8.30;;
13122;SDS011;6627;50.920;12.050;2023-06-19T08:31:50;8.87;;;8.07;;
13122;SDS011;6627;50.920;12.050;2023-06-19T08:34:18;9.10;;;7.63;;
13122;SDS011;6627;50.920;12.050;2023-06-19T08:36:45;8.97;;;8.03;;
13122;SDS011;6627;50.920;12.050;2023-06-19T08:39:12;9.43;;;8.03;;
13122;SDS011;6627;50.920;12.050;2023-06-19T08:41:39;9.53;;;8.63;;
13122;SDS011;6627;50.920;12.050;2023-06-19T08:44:07;9.57;;;8.37;;
13122;SDS011;6627;50.920;12.050;2023-06-19T08:46:36;9.23;;;8.00;;
13122;SDS011;6627;50.920;12.050;2023-06-19T08:49:04;12.77;;;8.10;;
13122;SDS011;6627;50.920;12.050;2023-06-19T08:51:33;9.37;;;8.27;;
13122;SDS011;6627;50.920;12.050;2023-06-19T08:54:01;13.10;;;8.90;;
13122;SDS011;6627;50.920;12.050;2023-06-19T08:56:30;13.00;;;8.47;;
13122;SDS011;6627;50.920;12.050;2023-06-19T08:59:09;11.43;;;8.17;;
13122;SDS011;6627;50.920;12.050;2023-06-19T09:01:37;10.43;;;8.67;;
13122;SDS011;6627;50.920;12.050;2023-06-19T09:04:10;9.00;;;8.10;;
13122;SDS011;6627;50.920;12.050;2023-06-19T09:06:49;11.27;;;8.33;;
13122;SDS011;6627;50.920;12.050;2023-06-19T09:09:19;10.63;;;8.33;;
13122;SDS011;6627;50.920;12.050;2023-06-19T09:11:57;10.00;;;8.30;;
13122;SDS011;6627;50.920;12.050;2023-06-19T09:14:33;9.37;;;7.90;;
13122;SDS011;6627;50.920;12.050;2023-06-19T09:17:01;9.13;;;8.23;;
13122;SDS011;6627;50.920;12.050;2023-06-19T09:19:32;9.17;;;8.30;;
13122;SDS011;6627;50.920;12.050;2023-06-19T09:22:01;8.50;;;7.80;;
13122;SDS011;6627;50.920;12.050;2023-06-19T09:24:35;9.23;;;8.20;;
13122;SDS011;6627;50.920;12.050;2023-06-19T09:27:05;9.73;;;8.77;;
13122;SDS011;6627;50.920;12.050;2023-06-19T09:29:36;9.57;;;8.60;;
13122;SDS011;6627;50.920;12.050;2023-06-19T09:32:13;10.13;;;8.03;;
13122;SDS011;6627;50.920;12.050;2023-06-19T09:34:46;12.10;;;7.50;;
13122;SDS011;6627;50.920;12.050;2023-06-19T09:37:16;9.17;;;8.27;;
13122;SDS011;6627;50.920;12.050;2023-06-19T09:39:49;9.77;;;8.87;;
13122;SDS011;6627;50.920;12.050;2023-06-19T09:42:22;9.13;;;8.33;;
13122;SDS011;6627;50.920;12.050;2023-06-19T09:44:55;10.87;;;8.70;;
13122;SDS011;6627;50.920;12.050;2023-06-19T09:47:30;10.57;;;8.57;;
13122;SDS011;6627;50.920;12.050;2023-06-19T09:50:03;9.03;;;8.17;;
13122;SDS011;6627;50.920;12.050;2023-06-19T09:52:33;9.43;;;8.30;;
13122;SDS011;6627;50.920;12.050;2023-06-19T09:55:01;9.37;;;8.57;;
13122;SDS011;6627;50.920;12.050;2023-06-19T09:57:31;9.17;;;8.27;;
13122;SDS011;6627;50.920;12.050;2023-06-19T10:00:00;10.63;;;8.00;;
13122;SDS011;6627;50.920;12.050;2023-06-19T10:02:38;9.20;;;8.40;;
13122;SDS011;6627;50.920;12.050;2023-06-19T10:05:09;9.50;;;8.07;;
13122;SDS011;6627;50.920;12.050;2023-06-19T10:07:38;9.50;;;8.37;;
13122;SDS011;6627;50.920;12.050;2023-06-19T10:10:10;10.13;;;8.30;;
13122;SDS011;6627;50.920;12.050;2023-06-19T10:12:48;9.30;;;8.47;;
13122;SDS011;6627;50.920;12.050;2023-06-19T10:15:16;11.07;;;8.40;;
13122;SDS011;6627;50.920;12.050;2023-06-19T10:17:46;9.43;;;8.60;;
13122;SDS011;6627;50.920;12.050;2023-06-19T10:20:25;9.20;;;8.40;;
13122;SDS011;6627;50.920;12.050;2023-06-19T10:22:58;9.30;;;7.93;;
13122;SDS011;6627;50.920;12.050;2023-06-19T10:25:30;9.13;;;8.27;;
13122;SDS011;6627;50.920;12.050;2023-06-19T10:27:59;9.27;;;8.37;;
13122;SDS011;6627;50.920;12.050;2023-06-19T10:30:27;10.33;;;8.63;;
13122;SDS011;6627;50.920;12.050;2023-06-19T10:32:55;9.10;;;8.13;;
13122;SDS011;6627;50.920;12.050;2023-06-19T10:35:22;8.98;;;8.13;;
13122;SDS011;6627;50.920;12.050;2023-06-19T10:37:51;9.40;;;8.50;;
13122;SDS011;6627;50.920;12.050;2023-06-19T10:40:18;9.50;;;8.50;;
13122;SDS011;6627;50.920;12.050;2023-06-19T10:42:46;12.33;;;8.50;;
13122;SDS011;6627;50.920;12.050;2023-06-19T10:45:14;9.23;;;7.27;;
13122;SDS011;6627;50.920;12.050;2023-06-19T10:47:45;8.65;;;7.50;;
13122;SDS011;6627;50.920;12.050;2023-06-19T10:50:13;8.60;;;7.80;;
13122;SDS011;6627;50.920;12.050;2023-06-19T10:52:43;9.07;;;7.75;;
13122;SDS011;6627;50.920;12.050;2023-06-19T10:55:14;9.32;;;8.43;;
13122;SDS011;6627;50.920;12.050;2023-06-19T10:57:44;8.55;;;7.30;;
13122;SDS011;6627;50.920;12.050;2023-06-19T11:00:21;9.00;;;8.15;;
13122;SDS011;6627;50.920;12.050;2023-06-19T11:02:50;9.32;;;7.40;;
13122;SDS011;6627;50.920;12.050;2023-06-19T11:05:19;7.63;;;6.93;;
13122;SDS011;6627;50.920;12.050;2023-06-19T11:07:51;8.20;;;7.13;;
13122;SDS011;6627;50.920;12.050;2023-06-19T11:10:20;8.30;;;7.10;;
13122;SDS011;6627;50.920;12.050;2023-06-19T11:12:50;8.73;;;7.75;;
13122;SDS011;6627;50.920;12.050;2023-06-19T11:15:20;7.93;;;7.18;;
13122;SDS011;6627;50.920;12.050;2023-06-19T11:17:55;8.18;;;7.47;;
13122;SDS011;6627;50.920;12.050;2023-06-19T11:20:22;7.55;;;6.90;;
13122;SDS011;6627;50.920;12.050;2023-06-19T11:22:55;7.95;;;7.22;;
13122;SDS011;6627;50.920;12.050;2023-06-19T11:25:34;8.45;;;7.10;;
13122;SDS011;6627;50.920;12.050;2023-06-19T11:28:03;7.80;;;7.10;;
13122;SDS011;6627;50.920;12.050;2023-06-19T11:30:32;14.77;;;7.50;;
13122;SDS011;6627;50.920;12.050;2023-06-19T11:33:01;9.63;;;7.47;;
13122;SDS011;6627;50.920;12.050;2023-06-19T11:35:32;10.52;;;7.60;;
13122;SDS011;6627;50.920;12.050;2023-06-19T11:38:02;7.95;;;7.18;;
13122;SDS011;6627;50.920;12.050;2023-06-19T11:40:38;8.07;;;7.30;;
13122;SDS011;6627;50.920;12.050;2023-06-19T11:43:06;8.40;;;7.70;;
13122;SDS011;6627;50.920;12.050;2023-06-19T11:45:43;10.00;;;7.35;;
13122;SDS011;6627;50.920;12.050;2023-06-19T11:48:12;7.97;;;7.30;;
13122;SDS011;6627;50.920;12.050;2023-06-19T11:50:39;8.48;;;7.07;;
13122;SDS011;6627;50.920;12.050;2023-06-19T11:53:08;7.32;;;6.72;;
13122;SDS011;6627;50.920;12.050;2023-06-19T11:55:35;7.32;;;6.72;;
13122;SDS011;6627;50.920;12.050;2023-06-19T11:58:02;7.68;;;7.07;;
13122;SDS011;6627;50.920;12.050;2023-06-19T12:00:30;8.25;;;7.10;;
13122;SDS011;6627;50.920;12.050;2023-06-19T12:02:57;7.68;;;6.60;;
13122;SDS011;6627;50.920;12.050;2023-06-19T12:05:24;7.88;;;7.18;;
13122;SDS011;6627;50.920;12.050;2023-06-19T12:07:51;8.10;;;7.10;;
13122;SDS011;6627;50.920;12.050;2023-06-19T12:10:20;7.72;;;7.13;;
13122;SDS011;6627;50.920;12.050;2023-06-19T12:12:47;7.78;;;7.13;;
13122;SDS011;6627;50.920;12.050;2023-06-19T12:15:14;7.95;;;7.10;;
13122;SDS011;6627;50.920;12.050;2023-06-19T12:17:41;7.40;;;6.70;;
13122;SDS011;6627;50.920;12.050;2023-06-19T12:20:09;7.30;;;6.70;;
13122;SDS011;6627;50.920;12.050;2023-06-19T12:22:39;8.07;;;6.75;;
13122;SDS011;6627;50.920;12.050;2023-06-19T12:25:08;7.45;;;6.57;;
13122;SDS011;6627;50.920;12.050;2023-06-19T12:27:37;9.80;;;6.70;;
13122;SDS011;6627;50.920;12.050;2023-06-19T12:30:06;8.18;;;7.20;;
13122;SDS011;6627;50.920;12.050;2023-06-19T12:32:35;8.25;;;7.25;;
13122;SDS011;6627;50.920;12.050;2023-06-19T12:35:02;7.25;;;6.65;;
13122;SDS011;6627;50.920;12.050;2023-06-19T12:37:32;6.68;;;6.07;;
13122;SDS011;6627;50.920;12.050;2023-06-19T12:39:59;6.03;;;5.53;;
13122;SDS011;6627;50.920;12.050;2023-06-19T12:42:33;6.50;;;6.00;;
13122;SDS011;6627;50.920;12.050;2023-06-19T12:45:02;6.20;;;5.70;;
13122;SDS011;6627;50.920;12.050;2023-06-19T12:47:30;7.00;;;6.40;;
13122;SDS011;6627;50.920;12.050;2023-06-19T12:49:58;6.93;;;6.22;;
13122;SDS011;6627;50.920;12.050;2023-06-19T12:52:25;6.82;;;6.10;;
13122;SDS011;6627;50.920;12.050;2023-06-19T12:54:53;6.35;;;5.82;;
13122;SDS011;6627;50.920;12.050;2023-06-19T12:57:20;6.78;;;6.15;;
13122;SDS011;6627;50.920;12.050;2023-06-19T12:59:47;6.82;;;6.25;;
13122;SDS011;6627;50.920;12.050;2023-06-19T13:02:16;6.82;;;6.22;;
13122;SDS011;6627;50.920;12.050;2023-06-19T13:04:43;7.10;;;6.40;;
13122;SDS011;6627;50.920;12.050;2023-06-19T13:07:10;8.50;;;6.78;;
13122;SDS011;6627;50.920;12.050;2023-06-19T13:09:38;7.70;;;6.88;;
13122;SDS011;6627;50.920;12.050;2023-06-19T13:12:09;6.57;;;6.00;;
13122;SDS011;6627;50.920;12.050;2023-06-19T13:14:36;7.18;;;5.82;;
13122;SDS011;6627;50.920;12.050;2023-06-19T13:17:04;6.68;;;6.18;;
13122;SDS011;6627;50.920;12.050;2023-06-19T13:19:32;7.00;;;6.32;;
13122;SDS011;6627;50.920;12.050;2023-06-19T13:22:01;7.03;;;6.43;;
13122;SDS011;6627;50.920;12.050;2023-06-19T13:24:28;6.60;;;6.00;;
13122;SDS011;6627;50.920;12.050;2023-06-19T13:26:55;6.32;;;5.78;;
13122;SDS011;6627;50.920;12.050;2023-06-19T13:29:23;7.03;;;6.43;;
13122;SDS011;6627;50.920;12.050;2023-06-19T13:31:50;7.25;;;6.55;;
13122;SDS011;6627;50.920;12.050;2023-06-19T13:34:17;8.02;;;7.32;;
13122;SDS011;6627;50.920;12.050;2023-06-19T13:36:48;7.30;;;6.68;;
13122;SDS011;6627;50.920;12.050;2023-06-19T13:39:15;8.85;;;7.95;;
13122;SDS011;6627;50.920;12.050;2023-06-19T13:41:45;9.82;;;7.97;;
13122;SDS011;6627;50.920;12.050;2023-06-19T13:44:13;8.05;;;7.25;;
13122;SDS011;6627;50.920;12.050;2023-06-19T13:46:40;8.63;;;7.93;;
13122;SDS011;6627;50.920;12.050;2023-06-19T13:49:08;8.75;;;7.85;;
13122;SDS011;6627;50.920;12.050;2023-06-19T13:51:36;8.73;;;7.85;;
13122;SDS011;6627;50.920;12.050;2023-06-19T13:54:05;8.80;;;7.95;;
13122;SDS011;6627;50.920;12.050;2023-06-19T13:56:33;9.10;;;7.70;;
13122;SDS011;6627;50.920;12.050;2023-06-19T13:59:00;8.95;;;8.15;;
13122;SDS011;6627;50.920;12.050;2023-06-19T14:01:28;8.65;;;7.85;;
13122;SDS011;6627;50.920;12.050;2023-06-19T14:03:55;8.65;;;7.78;;
13122;SDS011;6627;50.920;12.050;2023-06-19T14:06:23;8.65;;;7.85;;
13122;SDS011;6627;50.920;12.050;2023-06-19T14:08:51;8.95;;;8.02;;
13122;SDS011;6627;50.920;12.050;2023-06-19T14:11:19;9.52;;;7.97;;
13122;SDS011;6627;50.920;12.050;2023-06-19T14:13:46;9.43;;;8.68;;
13122;SDS011;6627;50.920;12.050;2023-06-19T14:16:15;10.65;;;9.10;;
13122;SDS011;6627;50.920;12.050;2023-06-19T14:18:42;10.93;;;8.68;;
13122;SDS011;6627;50.920;12.050;2023-06-19T14:21:09;10.27;;;9.20;;
13122;SDS011;6627;50.920;12.050;2023-06-19T14:23:36;9.30;;;8.40;;
13122;SDS011;6627;50.920;12.050;2023-06-19T14:26:04;8.77;;;7.97;;
13122;SDS011;6627;50.920;12.050;2023-06-19T14:28:33;10.65;;;8.68;;
13122;SDS011;6627;50.920;12.050;2023-06-19T14:31:00;9.98;;;9.07;;
13122;SDS011;6627;50.920;12.050;2023-06-19T14:33:27;9.65;;;8.60;;
13122;SDS011;6627;50.920;12.050;2023-06-19T14:35:55;9.18;;;8.38;;
13122;SDS011;6627;50.920;12.050;2023-06-19T14:38:22;12.07;;;8.20;;
13122;SDS011;6627;50.920;12.050;2023-06-19T14:40:51;8.90;;;8.20;;
13122;SDS011;6627;50.920;12.050;2023-06-19T14:43:18;9.32;;;8.38;;
13122;SDS011;6627;50.920;12.050;2023-06-19T14:45:46;9.13;;;8.32;;
13122;SDS011;6627;50.920;12.050;2023-06-19T14:48:14;8.75;;;7.93;;